NATIONAL KEY DEER NWR FL US current weather conditions

sailwx.info

Wind from 119 at 3 knots gusting 9

Air temperature 28.3° C
Dewpoint 22.8° C

Last reported at 2017-Oct-18 20:38 UTC.
Time now 2017-Oct-18 22:14 UTC

Location: N 24°43' W 081°23'.
View on Google Maps.

See reports from other nearby stations

  
Tides and Currents Weather Stations Pressure Air Temp Water Temp Dewpoint Dewpoint Depression Visibility Wind Speed Wind Dir Waves Ship Positions
date/time (UTC)wind fromknots sea level pressurealtimeterstation pressurevisibilityair tempwater tempwave heightnotes
2017-Oct-18 20:38 119 3 gusting 9 28.3
2017-Oct-18 19:38 085 6 gusting 10 29.4
2017-Oct-18 18:38 098 5 gusting 8 29.4
2017-Oct-18 17:38 100 4 gusting 10 28.9
2017-Oct-18 16:38 103 6 gusting 9 28.9
2017-Oct-18 15:38 050 5 gusting 12 27.8
2017-Oct-18 14:38 075 5 gusting 9 27.2
2017-Oct-18 13:38 111 5 gusting 11 27.8
2017-Oct-18 12:38 056 4 gusting 8 26.1
2017-Oct-18 11:38 048 6 gusting 13 26.7
2017-Oct-18 10:38 040 6 gusting 15 25.0
2017-Oct-18 09:38 052 6 gusting 9 26.1
2017-Oct-18 08:38 077 4 gusting 7 26.7
2017-Oct-18 07:38 069 5 gusting 12 25.6
2017-Oct-18 06:38 113 4 gusting 9 27.8
2017-Oct-18 05:38 099 5 gusting 8 27.8
2017-Oct-18 04:38 078 5 gusting 11 28.3
2017-Oct-18 03:38 089 6 gusting 13 28.3
2017-Oct-18 02:38 078 6 gusting 10 28.3
2017-Oct-18 01:38 086 6 gusting 10 28.3
2017-Oct-18 00:38 090 5 gusting 9 28.3
2017-Oct-17 23:38 095 5 gusting 10 28.3
2017-Oct-17 22:38 099 6 gusting 11 28.3
2017-Oct-17 21:38 097 6 gusting 11 29.4
2017-Oct-17 20:38 085 6 gusting 10 30.0
2017-Oct-17 19:38 080 6 gusting 10 31.1
2017-Oct-17 18:38 083 6 gusting 10 32.2
2017-Oct-17 16:38 083 6 gusting 12 30.6
2017-Oct-17 15:38 053 6 gusting 11 31.1
2017-Oct-17 14:38 062 6 gusting 11 30.0
2017-Oct-17 13:38 097 4 gusting 6 30.0
2017-Oct-17 12:38 087 4 gusting 6 29.4
2017-Oct-17 11:38 088 1 gusting 4 26.1
2017-Oct-17 10:38 072 2 gusting 4 26.1
2017-Oct-17 09:38 081 2 gusting 3 25.0
2017-Oct-17 08:38 019 1 gusting 2 25.0
2017-Oct-17 07:38 316 0 gusting 1 25.0
2017-Oct-17 06:38 334 1 gusting 1 25.0
2017-Oct-17 05:38 076 1 gusting 8 26.7
2017-Oct-17 04:38 067 5 gusting 10 26.7
2017-Oct-17 03:38 340 0 gusting 1 26.1
2017-Oct-17 02:38 355 0 gusting 1 25.6
2017-Oct-17 01:38 26.1
2017-Oct-17 00:38 077 1 gusting 3 27.2
2017-Oct-16 23:38 047 1 gusting 4 27.8
2017-Oct-16 22:38 010 2 gusting 6 29.4